Time;durP1;ratioP1;P1;durP2;ratioP2;P2;SDS_P1;SDS_P2;PMS_P1;PMS_P2;Temp;Humidity;BMP_temperature;BMP_pressure;BME280_temperature;BME280_humidity;BME280_pressure;Samples;Min_cycle;Max_cycle;Signal;HPM_P1;HPM_P2
2022/10/26 00:01:13;;;;;;;4.13;3.60;;;14.20;99.90;;;14.77;nan;100599.72;5013595;28;20646;-65
2022/10/26 00:03:43;;;;;;;7.80;3.70;;;14.20;99.90;;;14.78;nan;100598.75;5006629;28;20669;-65
2022/10/26 00:06:20;;;;;;;6.03;3.97;;;14.20;99.90;;;14.74;nan;100592.09;4974873;28;20671;-66
2022/10/26 00:08:47;;;;;;;3.60;3.30;;;14.20;99.90;;;14.66;nan;100578.84;4974704;28;21186;-66
2022/10/26 00:11:16;;;;;;;4.13;3.50;;;14.20;99.90;;;14.75;nan;100589.38;4981536;28;20674;-64
2022/10/26 00:13:44;;;;;;;4.23;3.33;;;14.20;99.90;;;14.85;nan;100594.59;4988565;28;21039;-65
2022/10/26 00:16:25;;;;;;;10.07;3.60;;;14.30;99.90;;;14.78;nan;100598.75;5005584;28;20638;-63
2022/10/26 00:18:52;;;;;;;6.47;3.80;;;14.20;99.90;;;14.77;nan;100586.59;4991743;28;21363;-64
2022/10/26 00:21:19;;;;;;;10.13;4.40;;;14.20;99.90;;;14.81;nan;100585.34;4993936;28;21205;-64
2022/10/26 00:23:46;;;;;;;4.23;3.83;;;14.20;99.90;;;14.70;nan;100582.84;4992748;28;20642;-67
2022/10/26 00:26:13;;;;;;;9.23;4.33;;;14.20;99.90;;;14.77;nan;100592.69;4995102;28;20670;-65
2022/10/26 00:28:40;;;;;;;8.83;3.47;;;14.20;99.90;;;14.69;nan;100610.91;4983477;28;20646;-68
2022/10/26 00:31:13;;;;;;;18.47;4.20;;;14.20;99.90;;;14.73;nan;100616.72;4995071;28;20629;-65
2022/10/26 00:33:40;;;;;;;11.77;3.83;;;14.20;99.90;;;14.75;nan;100609.53;4992508;28;20670;-65
2022/10/26 00:36:09;;;;;;;5.63;3.90;;;14.20;99.90;;;14.71;nan;100602.91;4995234;28;20605;-64
2022/10/26 00:38:36;;;;;;;5.63;3.70;;;14.20;99.90;;;14.74;nan;100607.88;4994267;28;21065;-64
2022/10/26 00:41:06;;;;;;;4.33;3.20;;;14.10;99.90;;;14.72;nan;100612.44;4993744;28;20636;-66
2022/10/26 00:43:36;;;;;;;7.27;2.83;;;14.10;99.90;;;14.61;nan;100613.38;4971480;28;20701;-65
2022/10/26 00:46:08;;;;;;;4.43;3.33;;;14.10;99.90;;;14.65;nan;100619.22;4977426;28;20723;-65
2022/10/26 00:48:42;;;;;;;3.43;3.13;;;14.10;99.90;;;14.58;nan;100624.19;5005636;28;20639;-65
2022/10/26 00:51:16;;;;;;;4.70;3.30;;;14.10;99.90;;;14.60;nan;100617.00;4977430;28;20599;-68
2022/10/26 00:53:43;;;;;;;5.73;3.70;;;14.10;99.90;;;14.66;nan;100610.34;4992560;28;20661;-66
2022/10/26 00:56:11;;;;;;;3.97;3.47;;;14.00;99.90;;;14.60;nan;100606.50;4994345;28;20644;-65
2022/10/26 00:58:38;;;;;;;10.77;3.60;;;14.00;99.90;;;14.62;nan;100606.34;4994267;28;20618;-65
2022/10/26 01:01:05;;;;;;;3.97;3.60;;;14.00;99.90;;;14.59;nan;100610.06;4995097;28;20632;-69
2022/10/26 01:03:34;;;;;;;4.67;3.60;;;14.00;99.90;;;14.58;nan;100623.34;4992858;28;21005;-65
2022/10/26 01:06:04;;;;;;;5.17;4.00;;;14.00;99.90;;;14.58;nan;100633.84;4990253;28;20670;-68
2022/10/26 01:08:33;;;;;;;4.33;3.90;;;14.00;99.90;;;14.61;nan;100623.03;4988454;28;20635;-67
2022/10/26 01:11:00;;;;;;;3.00;2.80;;;14.00;99.90;;;14.52;nan;100623.88;4973606;28;20619;-64
2022/10/26 01:13:30;;;;;;;8.80;4.50;;;14.00;99.90;;;14.54;nan;100621.94;4989891;28;20638;-66
2022/10/26 01:16:21;;;;;;;3.83;3.43;;;14.00;99.90;;;14.57;nan;100608.53;4992793;28;20640;-64
2022/10/26 01:19:17;;;;;;;8.13;3.80;;;14.00;99.90;;;14.64;nan;100612.28;4986407;28;20626;-65
2022/10/26 01:22:03;;;;;;;6.83;2.97;;;14.00;99.90;;;14.56;nan;100605.09;4965506;28;20630;-64
2022/10/26 01:25:02;;;;;;;5.27;3.80;;;14.00;99.90;;;14.55;nan;100599.97;4991038;28;20659;-65
2022/10/26 01:27:35;;;;;;;5.07;3.97;;;14.00;99.90;;;14.50;nan;100586.44;4993239;28;20679;-65
2022/10/26 01:30:29;;;;;;;8.57;3.83;;;14.00;99.90;;;14.46;nan;100587.69;4991910;28;20765;-65
2022/10/26 01:33:34;;;;;;;5.30;3.60;;;14.00;99.90;;;14.38;nan;100579.63;4993965;28;21178;-64
2022/10/26 01:36:32;;;;;;;13.03;3.73;;;13.90;99.90;;;14.43;nan;100577.44;4992089;28;20738;-65
2022/10/26 01:39:14;;;;;;;5.67;3.77;;;13.90;99.90;;;14.51;nan;100574.94;4992854;28;20626;-64
2022/10/26 01:41:49;;;;;;;5.67;4.00;;;14.00;99.90;;;14.49;nan;100584.75;4992513;28;20606;-64
2022/10/26 01:44:32;;;;;;;7.07;2.90;;;14.00;99.90;;;14.45;nan;100576.34;4992469;28;20669;-65
2022/10/26 01:47:02;;;;;;;4.80;3.70;;;14.00;99.90;;;14.48;nan;100568.16;4989898;28;20681;-65
2022/10/26 01:49:35;;;;;;;4.47;3.40;;;14.00;99.90;;;14.51;nan;100570.53;4990414;28;20704;-65
2022/10/26 01:52:02;;;;;;;7.23;4.03;;;14.00;99.90;;;14.45;nan;100559.75;4991176;28;20625;-64
2022/10/26 01:54:29;;;;;;;3.47;3.17;;;13.90;99.90;;;14.41;nan;100574.97;4992327;28;20654;-64
2022/10/26 01:57:01;;;;;;;5.20;3.43;;;13.90;99.90;;;14.42;nan;100562.63;4992116;28;20638;-65
2022/10/26 02:00:00;;;;;;;9.47;4.03;;;13.90;99.90;;;14.57;nan;100575.25;4991414;28;20641;-66
2022/10/26 02:03:04;;;;;;;4.60;3.57;;;14.00;99.90;;;14.56;nan;100570.13;4992127;28;20635;-65
2022/10/26 02:06:08;;;;;;;4.50;3.80;;;14.00;99.90;;;14.60;nan;100571.50;4991829;28;20731;-65
2022/10/26 02:08:49;;;;;;;21.30;4.40;;;14.10;99.90;;;14.61;nan;100581.03;4992861;28;20628;-66
2022/10/26 02:11:38;;;;;;;6.10;4.10;;;14.10;99.90;;;14.65;nan;100574.56;4990694;28;20660;-66
2022/10/26 02:14:48;;;;;;;3.60;3.30;;;14.10;99.90;;;14.58;nan;100570.81;4990551;28;20651;-66
2022/10/26 02:17:38;;;;;;;3.53;3.23;;;14.10;99.90;;;14.62;nan;100573.03;4991468;28;20989;-66
2022/10/26 02:20:12;;;;;;;5.43;3.10;;;14.10;99.90;;;14.62;nan;100573.03;4989431;28;20649;-65
2022/10/26 02:22:45;;;;;;;2.83;2.60;;;14.10;99.90;;;14.60;nan;100559.22;4989861;28;21005;-66
2022/10/26 02:25:19;;;;;;;3.73;3.40;;;14.10;99.90;;;14.64;nan;100560.59;4990542;28;21276;-65
2022/10/26 02:27:54;;;;;;;3.80;3.13;;;14.10;99.90;;;14.63;nan;100563.34;4974985;28;20708;-64
2022/10/26 02:30:21;;;;;;;3.57;3.23;;;14.10;99.90;;;14.67;nan;100549.00;4990611;28;21170;-67
2022/10/26 02:32:53;;;;;;;3.40;3.10;;;14.10;99.90;;;14.66;nan;100555.19;4992396;28;20627;-64
2022/10/26 02:35:27;;;;;;;4.30;3.30;;;14.10;99.90;;;14.66;nan;100549.94;4990113;28;20662;-64
2022/10/26 02:37:59;;;;;;;9.90;3.07;;;14.20;99.90;;;14.62;nan;100556.44;4990638;28;20703;-65
2022/10/26 02:40:28;;;;;;;4.70;3.33;;;14.10;99.90;;;14.62;nan;100556.44;4973422;28;20627;-65
2022/10/26 02:43:00;;;;;;;5.10;3.37;;;14.10;99.90;;;14.62;nan;100554.66;4991182;28;20654;-64
2022/10/26 02:45:34;;;;;;;3.80;3.40;;;14.10;99.90;;;14.65;nan;100561.44;4989923;28;20654;-65
2022/10/26 02:48:01;;;;;;;4.13;3.33;;;14.10;99.90;;;14.64;nan;100551.88;4990494;28;21110;-65
2022/10/26 02:51:10;;;;;;;3.47;3.17;;;14.10;99.90;;;14.66;nan;100563.91;4989682;28;21208;-65
2022/10/26 02:54:10;;;;;;;7.00;2.67;;;14.10;99.90;;;14.71;nan;100574.00;4983731;28;20630;-65
2022/10/26 02:56:49;;;;;;;3.10;2.80;;;14.20;99.90;;;14.71;nan;100558.25;4990306;28;20641;-65
2022/10/26 02:59:20;;;;;;;5.23;3.20;;;14.20;99.90;;;14.69;nan;100549.69;4990385;28;20631;-65
2022/10/26 03:01:49;;;;;;;3.53;3.00;;;14.10;99.90;;;14.67;nan;100555.06;4991998;28;20623;-64
2022/10/26 03:04:16;;;;;;;5.10;3.07;;;14.10;99.90;;;14.69;nan;100573.31;4991582;28;20662;-65
2022/10/26 03:06:52;;;;;;;2.93;2.70;;;14.10;99.90;;;14.68;nan;100576.91;4990585;28;20667;-67
2022/10/26 03:09:19;;;;;;;6.67;3.20;;;14.10;99.90;;;14.56;nan;100604.25;4988983;28;20618;-66
2022/10/26 03:11:49;;;;;;;6.33;3.20;;;14.10;99.90;;;14.56;nan;100588.50;5005834;28;20642;-65
2022/10/26 03:14:16;;;;;;;8.43;3.57;;;14.00;99.90;;;14.60;nan;100571.50;4988582;28;20655;-66
2022/10/26 03:16:43;;;;;;;2.80;2.63;;;14.00;99.90;;;14.64;nan;100572.91;4990214;28;20610;-65
2022/10/26 03:19:10;;;;;;;3.90;3.50;;;14.10;99.90;;;14.62;nan;100583.53;4990568;28;20630;-68
2022/10/26 03:21:37;;;;;;;3.67;3.23;;;14.00;99.90;;;14.64;nan;100599.16;4990075;28;21202;-65
2022/10/26 03:24:04;;;;;;;5.10;3.10;;;14.10;99.90;;;14.43;nan;100609.78;4990561;28;20657;-64
2022/10/26 03:26:31;;;;;;;5.00;3.37;;;14.00;99.90;;;14.31;nan;100617.91;4989311;28;20682;-65
2022/10/26 03:28:58;;;;;;;3.80;2.80;;;14.00;99.90;;;14.22;nan;100616.88;4991165;28;20619;-65
2022/10/26 03:31:25;;;;;;;4.90;3.70;;;13.90;99.90;;;14.31;nan;100610.03;4990452;28;20642;-64
2022/10/26 03:33:52;;;;;;;5.67;4.10;;;13.90;99.90;;;14.44;nan;100595.66;4991236;28;20659;-65
2022/10/26 03:36:21;;;;;;;8.80;3.70;;;13.90;99.90;;;14.45;nan;100599.13;4990631;28;20630;-65
2022/10/26 03:38:48;;;;;;;8.67;4.17;;;13.90;99.90;;;14.49;nan;100582.13;4989035;28;21217;-67
2022/10/26 03:41:15;;;;;;;8.13;3.47;;;13.90;99.90;;;14.51;nan;100585.47;4990354;28;20631;-64
2022/10/26 03:43:42;;;;;;;5.27;3.50;;;14.00;99.90;;;14.55;nan;100589.47;4988973;28;20842;-66
2022/10/26 03:46:09;;;;;;;3.83;3.07;;;14.00;99.90;;;14.61;nan;100586.28;4990089;28;20662;-65
2022/10/26 03:48:36;;;;;;;6.43;3.20;;;14.00;99.90;;;14.60;nan;100568.88;4989531;28;20637;-65
2022/10/26 03:51:05;;;;;;;10.90;3.90;;;14.00;99.90;;;14.54;nan;100567.66;4989525;28;20614;-66
2022/10/26 03:53:40;;;;;;;5.07;4.10;;;14.00;99.90;;;14.60;nan;100561.84;4991521;28;20627;-64
2022/10/26 03:56:09;;;;;;;6.70;4.30;;;14.00;99.90;;;14.67;nan;100551.63;4985222;28;20649;-65
2022/10/26 03:58:41;;;;;;;6.60;3.60;;;14.10;99.90;;;14.66;nan;100552.56;4970793;28;21171;-64
2022/10/26 04:01:08;;;;;;;8.80;4.10;;;14.10;99.90;;;14.63;nan;100558.09;4986603;28;20639;-65
2022/10/26 04:03:35;;;;;;;9.97;4.30;;;14.10;99.90;;;14.63;nan;100552.84;4972213;28;21222;-65
2022/10/26 04:06:03;;;;;;;6.17;4.07;;;14.10;99.90;;;14.58;nan;100555.06;4984944;28;20635;-64
2022/10/26 04:08:30;;;;;;;8.17;3.90;;;14.10;99.90;;;14.51;nan;100553.94;4991142;28;20626;-65
2022/10/26 04:10:57;;;;;;;4.70;3.50;;;14.00;99.90;;;14.58;nan;100555.06;4989456;28;20633;-64
2022/10/26 04:13:26;;;;;;;3.97;3.30;;;14.00;99.90;;;14.53;nan;100570.41;4991342;28;21190;-64
2022/10/26 04:15:53;;;;;;;5.63;3.37;;;14.00;99.90;;;14.52;nan;100566.13;4990762;28;20619;-66
2022/10/26 04:18:20;;;;;;;4.53;4.03;;;14.00;99.90;;;14.59;nan;100568.06;4991394;28;20630;-65
2022/10/26 04:20:47;;;;;;;4.53;2.87;;;14.00;99.90;;;14.62;nan;100573.03;4991125;28;20643;-64
2022/10/26 04:23:16;;;;;;;5.10;3.50;;;14.10;99.90;;;14.56;nan;100564.88;4990738;28;20680;-64
2022/10/26 04:25:43;;;;;;;6.63;3.50;;;14.00;99.90;;;14.55;nan;100563.22;4988567;28;20659;-65
2022/10/26 04:28:12;;;;;;;17.83;3.90;;;14.00;99.90;;;14.27;nan;100551.69;5005655;28;21100;-64
2022/10/26 04:30:39;;;;;;;8.90;3.70;;;14.00;99.90;;;14.28;nan;100549.88;4992095;28;20635;-66
2022/10/26 04:33:06;;;;;;;6.87;4.30;;;13.90;99.90;;;14.38;nan;100554.22;4995038;28;20632;-64
2022/10/26 04:35:34;;;;;;;5.37;3.93;;;13.90;99.90;;;14.39;nan;100552.44;4989552;28;20671;-65
2022/10/26 04:38:04;;;;;;;10.73;3.60;;;13.90;99.90;;;14.47;nan;100558.66;4993864;28;21252;-64
2022/10/26 04:40:32;;;;;;;9.60;3.60;;;13.90;99.90;;;14.35;nan;100559.72;4991617;28;20996;-62
2022/10/26 04:43:00;;;;;;;5.30;3.57;;;13.80;99.90;;;14.36;nan;100563.19;4994694;28;20616;-66
2022/10/26 04:45:29;;;;;;;5.57;4.20;;;13.90;99.90;;;14.41;nan;100558.38;4993401;28;20651;-65
2022/10/26 04:48:09;;;;;;;8.07;4.07;;;13.90;99.90;;;14.40;nan;100568.03;4993367;28;20670;-65
2022/10/26 04:50:36;;;;;;;6.60;4.57;;;13.90;99.90;;;14.38;nan;100574.38;4987575;28;20638;-65
2022/10/26 04:53:08;;;;;;;6.67;4.13;;;13.90;99.90;;;14.37;nan;100568.31;4993324;28;20626;-64
2022/10/26 04:55:35;;;;;;;7.90;4.50;;;13.80;99.90;;;14.40;nan;100561.94;4990878;28;20650;-64
2022/10/26 04:58:03;;;;;;;4.27;3.50;;;13.90;99.90;;;14.37;nan;100565.69;4993752;28;20652;-65
2022/10/26 05:00:31;;;;;;;5.57;3.90;;;13.90;99.90;;;14.46;nan;100564.06;4992907;28;20630;-65
2022/10/26 05:03:04;;;;;;;6.63;4.37;;;13.90;99.90;;;14.51;nan;100564.44;4993555;28;20967;-64
2022/10/26 05:05:35;;;;;;;3.60;3.20;;;14.00;99.90;;;14.52;nan;100560.88;4991476;28;20668;-64
2022/10/26 05:08:03;;;;;;;4.90;3.63;;;14.00;99.90;;;14.61;nan;100554.78;4988814;28;20669;-65
2022/10/26 05:10:30;;;;;;;12.00;2.97;;;14.00;99.90;;;14.70;nan;100553.97;4993001;28;20692;-64
2022/10/26 05:12:59;;;;;;;12.07;4.20;;;14.10;99.90;;;14.66;nan;100548.16;4994300;28;20614;-64
2022/10/26 05:15:26;;;;;;;4.17;3.50;;;14.00;99.90;;;14.60;nan;100550.50;4992261;28;20646;-64
2022/10/26 05:18:02;;;;;;;4.40;3.50;;;14.00;99.90;;;14.56;nan;100551.75;4991624;28;21202;-65
2022/10/26 05:20:33;;;;;;;6.10;4.47;;;14.00;99.90;;;14.52;nan;100558.25;4992475;28;20976;-65
2022/10/26 05:23:03;;;;;;;4.20;3.30;;;14.00;99.90;;;14.49;nan;100566.38;4992354;28;20685;-64
2022/10/26 05:25:33;;;;;;;3.20;2.70;;;14.00;99.90;;;14.49;nan;100563.75;4991888;28;20676;-64
2022/10/26 05:28:04;;;;;;;7.30;3.03;;;14.00;99.90;;;14.55;nan;100571.09;4993089;28;21281;-65
2022/10/26 05:30:31;;;;;;;5.90;3.87;;;14.00;99.90;;;14.56;nan;100568.34;4991638;28;20644;-65
2022/10/26 05:33:03;;;;;;;5.40;3.20;;;14.00;99.90;;;14.57;nan;100579.66;4993668;28;20614;-65
2022/10/26 05:35:32;;;;;;;6.90;4.20;;;14.00;99.90;;;14.56;nan;100578.00;4992740;28;20659;-64
2022/10/26 05:37:59;;;;;;;6.87;3.83;;;14.00;99.90;;;14.56;nan;100570.13;4993330;28;20618;-61
2022/10/26 05:40:26;;;;;;;3.73;3.43;;;14.00;99.90;;;14.61;nan;100575.78;4992414;28;20637;-64
2022/10/26 05:43:00;;;;;;;5.10;3.03;;;14.00;99.90;;;14.64;nan;100575.53;4992020;28;21284;-65
2022/10/26 05:45:28;;;;;;;3.63;2.90;;;14.10;99.90;;;14.39;nan;100578.69;4992894;28;20650;-65
2022/10/26 05:47:55;;;;;;;5.10;2.60;;;14.00;99.90;;;14.30;nan;100588.19;4991923;28;20666;-65
2022/10/26 05:50:24;;;;;;;2.63;2.43;;;14.00;99.90;;;14.10;nan;100598.75;4992509;28;20631;-64
2022/10/26 05:52:51;;;;;;;3.10;2.90;;;13.80;99.90;;;14.21;nan;100593.38;4992230;28;20700;-65
2022/10/26 05:55:18;;;;;;;2.93;2.67;;;13.80;99.90;;;14.03;nan;100591.38;4991412;28;20736;-64
2022/10/26 05:57:46;;;;;;;3.20;2.93;;;13.70;99.90;;;13.99;nan;100595.25;4989616;28;20649;-65
2022/10/26 06:00:22;;;;;;;2.80;2.30;;;13.70;99.90;;;14.06;nan;100594.69;4991355;28;20647;-65
2022/10/26 06:03:04;;;;;;;6.33;2.77;;;13.60;99.90;;;14.03;nan;100604.50;4985182;28;20626;-64
2022/10/26 06:05:54;;;;;;;5.97;2.97;;;13.60;99.90;;;14.15;nan;100605.25;4981606;28;20666;-65
2022/10/26 06:08:27;;;;;;;7.40;2.80;;;13.60;99.90;;;14.18;nan;100610.25;4991749;28;20659;-64
2022/10/26 06:10:58;;;;;;;8.87;3.07;;;13.70;99.90;;;14.32;nan;100617.75;4990720;28;20650;-64
2022/10/26 06:13:26;;;;;;;4.30;3.03;;;13.80;99.90;;;14.37;nan;100630.47;4992855;28;20618;-64
2022/10/26 06:16:22;;;;;;;4.00;3.00;;;13.80;99.90;;;14.43;nan;100629.94;4986329;28;20630;-64
2022/10/26 06:19:11;;;;;;;4.47;3.17;;;13.90;99.90;;;14.51;nan;100636.19;4972299;28;20655;-65
2022/10/26 06:21:47;;;;;;;5.23;3.00;;;13.90;99.90;;;14.54;nan;100632.44;4992117;28;21198;-64
2022/10/26 06:25:03;;;;;;;2.40;2.20;;;14.00;99.90;;;14.39;nan;100639.06;5004123;28;21125;-65
2022/10/26 06:27:55;;;;;;;3.60;2.50;;;14.00;99.90;;;14.40;nan;100641.53;4978127;28;20691;-65
2022/10/26 06:30:22;;;;;;;4.00;2.17;;;14.00;99.90;;;14.45;nan;100641.13;4980554;28;20685;-64
2022/10/26 06:32:54;;;;;;;1.93;1.83;;;14.00;99.90;;;14.29;nan;100643.44;4990800;28;20673;-64
2022/10/26 06:35:39;;;;;;;2.00;1.80;;;14.00;99.90;;;14.27;nan;100640.09;4991558;28;20634;-64
2022/10/26 06:38:17;;;;;;;3.60;2.20;;;13.90;99.90;;;14.20;nan;100647.66;4991886;28;20638;-66
2022/10/26 06:40:49;;;;;;;2.13;1.93;;;13.90;99.90;;;14.30;nan;100639.84;4990711;28;21174;-64
2022/10/26 06:43:34;;;;;;;2.40;2.00;;;13.90;99.90;;;14.32;nan;100637.91;4989248;28;20634;-64
2022/10/26 06:46:21;;;;;;;4.77;2.30;;;14.00;99.90;;;14.43;nan;100648.31;4991438;28;21218;-65
2022/10/26 06:49:05;;;;;;;2.70;2.30;;;14.00;99.90;;;14.53;nan;100651.78;5004445;28;20671;-64
2022/10/26 06:51:41;;;;;;;10.80;6.33;;;14.00;99.90;;;14.57;nan;100648.75;4990552;28;20623;-64
2022/10/26 06:54:50;;;;;;;8.33;4.90;;;14.10;99.90;;;14.50;nan;100652.88;4990023;28;20657;-69
2022/10/26 06:57:24;;;;;;;1.97;1.70;;;14.20;99.90;;;14.59;nan;100654.69;4989225;28;20637;-66
2022/10/26 07:00:01;;;;;;;1.70;1.40;;;14.20;99.90;;;14.60;nan;100664.25;4990239;28;20614;-65
2022/10/26 07:02:28;;;;;;;2.30;2.10;;;14.20;99.90;;;14.68;nan;100660.94;4987187;28;21193;-67
2022/10/26 07:04:55;;;;;;;2.00;1.87;;;14.20;99.90;;;14.55;nan;100673.47;4975388;28;20658;-66
2022/10/26 07:07:26;;;;;;;3.00;2.40;;;14.20;99.90;;;14.67;nan;100681.09;4991030;28;20670;-66
2022/10/26 07:09:53;;;;;;;4.67;1.90;;;14.20;99.90;;;14.74;nan;100686.66;4990615;28;20645;-66
2022/10/26 07:12:20;;;;;;;4.00;2.67;;;14.20;99.90;;;14.64;nan;100686.66;4990862;28;20621;-65
2022/10/26 07:14:47;;;;;;;3.90;2.20;;;14.30;99.90;;;14.76;nan;100687.34;4991136;28;21023;-67
2022/10/26 07:17:14;;;;;;;4.00;2.73;;;14.30;99.90;;;14.82;nan;100694.72;4989846;28;21092;-66
2022/10/26 07:19:43;;;;;;;3.50;2.70;;;14.30;99.90;;;14.76;nan;100687.34;4990083;28;20662;-67
2022/10/26 07:22:10;;;;;;;2.77;2.50;;;14.30;99.90;;;14.95;nan;100679.50;4988758;28;21202;-66
2022/10/26 07:24:37;;;;;;;3.20;2.40;;;14.40;99.90;;;14.91;nan;100693.03;4990765;28;20724;-65
2022/10/26 07:27:04;;;;;;;3.33;2.83;;;14.40;99.90;;;15.01;nan;100689.47;4990180;28;20639;-65
2022/10/26 07:29:32;;;;;;;6.40;2.27;;;14.50;99.90;;;14.97;nan;100700.41;4991122;28;20696;-66
2022/10/26 07:31:59;;;;;;;4.57;2.67;;;14.50;99.90;;;15.00;nan;100695.69;4991171;28;20614;-66
2022/10/26 07:34:26;;;;;;;2.57;2.37;;;14.50;99.90;;;15.20;nan;100702.63;4990019;28;20663;-65
2022/10/26 07:36:53;;;;;;;2.33;2.03;;;14.60;99.90;;;15.21;nan;100706.06;4988939;28;20623;-67
2022/10/26 07:39:20;;;;;;;3.17;2.70;;;14.60;99.90;;;15.10;nan;100711.47;4987705;28;20696;-65
2022/10/26 07:41:47;;;;;;;4.50;2.20;;;14.60;99.90;;;15.23;nan;100701.50;4990120;28;20625;-66
2022/10/26 07:44:14;;;;;;;4.17;2.50;;;14.70;99.90;;;15.28;nan;100708.03;4988189;28;20670;-65
2022/10/26 07:46:41;;;;;;;4.87;2.93;;;14.70;99.90;;;15.22;nan;100713.84;4989243;28;20619;-65
2022/10/26 07:49:08;;;;;;;3.10;2.57;;;14.80;99.90;;;15.31;nan;100712.97;4988780;28;20680;-66
2022/10/26 07:51:34;;;;;;;2.63;2.07;;;14.80;99.90;;;15.41;nan;100713.00;4987424;28;20676;-65
2022/10/26 07:54:02;;;;;;;3.13;2.10;;;14.90;99.90;;;15.26;nan;100714.38;4988258;28;20666;-67
2022/10/26 07:56:29;;;;;;;1.77;1.67;;;14.90;99.90;;;15.33;nan;100712.88;4990080;28;20836;-65
2022/10/26 07:58:57;;;;;;;2.17;1.97;;;14.90;99.90;;;15.38;nan;100708.84;4990556;28;20618;-64
2022/10/26 08:01:24;;;;;;;2.23;1.97;;;14.90;99.90;;;15.50;nan;100718.28;4990086;28;21010;-67
2022/10/26 08:03:52;;;;;;;10.57;2.40;;;15.00;99.90;;;15.63;nan;100727.69;4992067;28;21025;-65
2022/10/26 08:06:21;;;;;;;1.30;1.27;;;15.00;99.90;;;15.66;nan;100733.50;4993740;28;21411;-65
2022/10/26 08:08:48;;;;;;;3.40;1.73;;;15.10;99.90;;;15.72;nan;100732.09;4994602;28;20657;-68
2022/10/26 08:11:16;;;;;;;4.53;2.67;;;15.20;99.90;;;15.96;nan;100735.09;4994084;28;20633;-65
2022/10/26 08:13:43;;;;;;;4.83;2.60;;;15.30;99.90;;;16.22;nan;100742.25;5009058;28;20651;-65
2022/10/26 08:16:11;;;;;;;3.57;2.43;;;15.50;99.90;;;16.58;nan;100743.25;4993259;28;20692;-65
2022/10/26 08:18:38;;;;;;;4.40;2.90;;;15.70;99.90;;;17.00;nan;100747.03;4991236;28;20723;-65
2022/10/26 08:21:09;;;;;;;3.83;2.40;;;16.00;99.90;;;18.67;nan;100753.94;4993495;28;20643;-65
2022/10/26 08:23:38;;;;;;;4.10;2.93;;;16.70;99.90;;;18.43;nan;100758.09;4993256;28;20631;-65
2022/10/26 08:26:05;;;;;;;2.90;2.20;;;17.30;99.90;;;18.13;nan;100750.66;4993327;28;20638;-65
2022/10/26 08:28:32;;;;;;;2.10;1.87;;;17.30;99.90;;;17.54;nan;100748.75;4994278;28;20658;-67
2022/10/26 08:30:59;;;;;;;2.17;1.70;;;17.10;99.90;;;17.12;nan;100750.28;4992258;28;20657;-65
2022/10/26 08:33:26;;;;;;;3.13;2.40;;;16.90;99.90;;;17.34;nan;100739.28;4994176;28;20628;-67
2022/10/26 08:36:02;;;;;;;1.83;1.70;;;16.80;99.90;;;17.15;nan;100736.78;4993852;28;20664;-65
2022/10/26 08:38:29;;;;;;;4.27;2.53;;;16.70;99.90;;;17.38;nan;100745.91;4989798;28;20643;-65
2022/10/26 08:40:57;;;;;;;2.03;1.80;;;16.70;99.90;;;17.16;nan;100753.44;4978481;28;20635;-65
2022/10/26 08:43:42;;;;;;;1.40;1.30;;;16.70;99.90;;;17.31;nan;100751.94;5000685;28;20660;-65
2022/10/26 08:46:48;;;;;;;5.10;2.33;;;16.70;99.90;;;17.44;nan;100752.41;4992304;28;20676;-65
2022/10/26 08:49:35;;;;;;;2.00;1.80;;;16.80;99.90;;;17.36;nan;100755.78;4985725;28;21044;-67
2022/10/26 08:52:04;;;;;;;4.33;2.80;;;16.80;99.90;;;17.16;nan;100759.56;4989370;28;21284;-64
2022/10/26 08:54:42;;;;;;;3.83;2.80;;;16.70;99.90;;;17.42;nan;100770.19;4992628;28;20678;-66
2022/10/26 08:57:35;;;;;;;3.07;1.60;;;16.80;99.90;;;17.42;nan;100770.19;4992200;28;20692;-65
2022/10/26 09:00:19;;;;;;;5.50;2.80;;;16.80;99.90;;;17.70;nan;100764.69;4991167;28;21190;-65
2022/10/26 09:02:53;;;;;;;2.93;2.43;;;17.10;99.90;;;18.34;nan;100766.94;4993387;28;20606;-65
2022/10/26 09:05:37;;;;;;;11.43;2.70;;;17.50;99.90;;;18.16;nan;100770.66;4993016;28;20666;-65
2022/10/26 09:08:55;;;;;;;2.70;2.10;;;17.50;99.90;;;18.89;nan;100793.81;4991627;28;20716;-65
2022/10/26 09:11:50;;;;;;;2.80;2.17;;;17.90;99.90;;;19.27;nan;100787.19;5008472;28;20631;-65
2022/10/26 09:15:03;;;;;;;5.13;2.50;;;18.30;99.90;;;18.76;nan;100779.41;4993433;28;20658;-65
2022/10/26 09:17:48;;;;;;;4.80;1.63;;;18.20;99.90;;;18.94;nan;100791.53;4991465;28;20634;-65
2022/10/26 09:20:41;;;;;;;6.17;2.17;;;18.20;99.90;;;18.23;nan;100784.91;4990994;28;20627;-66
2022/10/26 09:23:17;;;;;;;1.53;1.33;;;17.90;99.90;;;18.19;nan;100791.44;4991025;28;20696;-65
2022/10/26 09:25:50;;;;;;;2.13;2.03;;;17.80;99.90;;;18.53;nan;100790.53;4991632;28;20650;-65
2022/10/26 09:28:19;;;;;;;1.70;1.60;;;17.90;99.90;;;18.92;nan;100777.66;4991191;28;20666;-68
2022/10/26 09:30:47;;;;;;;2.20;1.97;;;18.10;99.90;;;19.89;nan;100783.94;4991875;28;20637;-65
2022/10/26 09:33:21;;;;;;;2.43;2.23;;;18.70;99.90;;;21.44;nan;100785.91;4991977;28;20635;-64
2022/10/26 09:36:06;;;;;;;3.23;2.10;;;19.70;99.90;;;23.17;nan;100791.63;4997498;28;20641;-64
2022/10/26 09:38:43;;;;;;;2.40;1.93;;;20.80;99.90;;;27.25;nan;100787.44;4991211;28;20633;-64
2022/10/26 09:41:40;;;;;;;2.27;1.90;;;23.40;99.90;;;31.57;nan;100798.25;4991668;28;20638;-66
2022/10/26 09:44:53;;;;;;;5.30;1.83;;;26.00;99.90;;;31.68;nan;100800.06;4990620;28;20728;-65
2022/10/26 09:47:32;;;;;;;6.50;2.20;;;27.90;99.10;;;31.68;nan;100799.22;4965059;28;20713;-65
2022/10/26 09:50:17;;;;;;;2.37;2.20;;;28.40;96.40;;;35.17;nan;100791.69;4991569;28;20634;-65
2022/10/26 09:52:44;;;;;;;1.97;1.73;;;29.90;93.00;;;31.61;nan;100796.69;4991098;28;20670;-67
2022/10/26 09:55:12;;;;;;;7.40;2.20;;;29.70;90.10;;;30.94;nan;100801.09;4993422;28;20671;-65
2022/10/26 09:57:46;;;;;;;2.03;1.77;;;29.00;91.10;;;27.65;nan;100803.06;4992635;28;20614;-65
2022/10/26 10:00:24;;;;;;;2.57;2.00;;;27.20;92.50;;;26.57;nan;100805.81;4990485;28;20637;-65
2022/10/26 10:02:54;;;;;;;2.70;1.90;;;25.80;95.70;;;25.46;nan;100803.13;4992496;28;20705;-65
2022/10/26 10:05:32;;;;;;;2.20;2.00;;;24.70;98.00;;;24.33;nan;100802.78;4989344;28;20651;-65
2022/10/26 10:08:25;;;;;;;4.10;2.40;;;23.80;99.90;;;22.71;nan;100810.69;4991631;28;21273;-66
2022/10/26 10:10:55;;;;;;;1.90;1.80;;;22.60;99.90;;;22.60;nan;100813.81;4991836;28;20645;-64
2022/10/26 10:13:25;;;;;;;4.03;2.10;;;22.10;99.90;;;22.37;nan;100816.53;4992125;28;20618;-64
2022/10/26 10:16:01;;;;;;;2.77;2.47;;;21.80;99.90;;;24.04;nan;100821.66;4989777;28;21134;-64
2022/10/26 10:18:29;;;;;;;3.07;2.43;;;22.20;99.90;;;25.86;nan;100820.03;4992725;28;20630;-67
2022/10/26 10:20:57;;;;;;;2.40;2.20;;;23.30;99.90;;;25.31;nan;100831.81;4990807;28;20627;-65
2022/10/26 10:23:34;;;;;;;5.60;2.60;;;23.60;99.90;;;24.63;nan;100833.56;4988472;28;20623;-68
2022/10/26 10:26:07;;;;;;;5.03;2.50;;;23.30;99.90;;;23.75;nan;100840.41;4971754;28;20673;-66
2022/10/26 10:28:34;;;;;;;8.83;3.27;;;22.80;99.90;;;23.48;nan;100838.50;4977845;28;20684;-65
2022/10/26 10:31:21;;;;;;;2.60;2.20;;;22.50;99.90;;;23.37;nan;100847.78;4991773;28;20635;-66
2022/10/26 10:33:48;;;;;;;4.10;2.50;;;22.40;99.90;;;23.35;nan;100855.16;4990559;28;20673;-65
2022/10/26 10:36:24;;;;;;;4.53;1.97;;;22.20;99.90;;;23.64;nan;100848.88;4990764;28;20645;-65
2022/10/26 10:38:53;;;;;;;4.70;2.70;;;22.30;99.90;;;23.59;nan;100853.97;5006030;28;20622;-65
2022/10/26 10:41:35;;;;;;;2.93;1.83;;;22.30;99.90;;;23.36;nan;100855.97;4991584;28;20642;-65
2022/10/26 10:44:16;;;;;;;7.13;2.50;;;22.20;99.90;;;22.87;nan;100850.41;4989042;28;20666;-65
2022/10/26 10:46:43;;;;;;;2.27;2.07;;;22.00;99.90;;;22.83;nan;100857.13;4990772;28;20638;-69
2022/10/26 10:49:26;;;;;;;3.13;2.07;;;21.90;99.90;;;22.56;nan;100866.50;4989933;28;20674;-65
2022/10/26 10:51:55;;;;;;;2.63;2.47;;;21.70;99.90;;;22.61;nan;100861.50;4994206;28;20637;-69
2022/10/26 10:54:32;;;;;;;3.57;1.90;;;21.60;99.90;;;22.81;nan;100865.28;4981136;28;20668;-64